Time;durP1;ratioP1;P1;durP2;ratioP2;P2;SDS_P1;SDS_P2;PMS_P1;PMS_P2;Temp;Humidity;BMP_temperature;BMP_pressure;BME280_temperature;BME280_humidity;BME280_pressure;Samples;Min_cycle;Max_cycle;Signal;HPM_P1;HPM_P2
2023/12/30 00:00:06;;;;;;;28.00;16.70;;;;;;;4.32;100.00;100294.23;109069;1257;67420;-56
2023/12/30 00:02:48;;;;;;;23.10;15.70;;;;;;;4.29;100.00;100298.16;109121;1259;71402;-56
2023/12/30 00:05:16;;;;;;;24.10;15.80;;;;;;;4.27;100.00;100296.03;109114;1256;58878;-56
2023/12/30 00:07:44;;;;;;;25.50;16.50;;;;;;;4.24;100.00;100302.20;109194;1256;59439;-56
2023/12/30 00:10:12;;;;;;;26.40;16.60;;;;;;;4.22;100.00;100315.34;109079;1256;74658;-56
2023/12/30 00:12:39;;;;;;;23.90;15.50;;;;;;;4.19;100.00;100314.34;109073;1260;66991;-56
2023/12/30 00:15:07;;;;;;;23.70;15.20;;;;;;;4.18;100.00;100313.07;109029;1257;72744;-56
2023/12/30 00:17:35;;;;;;;24.60;15.20;;;;;;;4.17;100.00;100310.62;109007;1256;60922;-57
2023/12/30 00:20:04;;;;;;;24.40;15.30;;;;;;;4.18;100.00;100309.32;109099;1257;59449;-56
2023/12/30 00:22:31;;;;;;;22.60;14.30;;;;;;;4.18;100.00;100305.04;109091;1257;74737;-56
2023/12/30 00:24:59;;;;;;;24.40;15.20;;;;;;;4.16;100.00;100301.17;109045;1256;65518;-56
2023/12/30 00:27:27;;;;;;;23.70;15.40;;;;;;;4.16;100.00;100302.61;109048;1255;72718;-56
2023/12/30 00:29:54;;;;;;;25.20;15.80;;;;;;;4.17;100.00;100296.63;109176;1256;61769;-56
2023/12/30 00:32:22;;;;;;;26.90;16.00;;;;;;;4.17;100.00;100299.79;109064;1256;59495;-56
2023/12/30 00:34:49;;;;;;;25.50;16.30;;;;;;;4.19;100.00;100297.04;109048;1260;73380;-57
2023/12/30 00:37:19;;;;;;;28.30;17.80;;;;;;;4.18;100.00;100294.65;109114;1256;66123;-56
2023/12/30 00:39:48;;;;;;;28.20;18.20;;;;;;;4.19;100.00;100293.53;108956;1256;72197;-57
2023/12/30 00:42:15;;;;;;;27.10;17.90;;;;;;;4.17;100.00;100295.46;109111;1256;59644;-56
2023/12/30 00:44:43;;;;;;;28.00;17.50;;;;;;;4.16;100.00;100296.73;109126;1256;60225;-56
2023/12/30 00:47:11;;;;;;;28.00;16.60;;;;;;;4.18;100.00;100300.23;109070;1256;74660;-56
2023/12/30 00:49:39;;;;;;;26.20;16.10;;;;;;;4.19;100.00;100295.98;109016;1258;66970;-57
2023/12/30 00:52:06;;;;;;;26.90;17.50;;;;;;;4.17;100.00;100297.50;109084;1257;72715;-56
2023/12/30 00:54:34;;;;;;;29.30;18.90;;;;;;;4.17;100.00;100292.05;109029;1256;60143;-56
2023/12/30 00:57:13;;;;;;;30.80;17.70;;;;;;;4.15;100.00;100285.45;109096;1259;60155;-56
2023/12/30 00:59:42;;;;;;;30.20;18.00;;;;;;;4.14;100.00;100289.83;109021;1257;73489;-56
2023/12/30 01:02:09;;;;;;;29.40;17.90;;;;;;;4.16;100.00;100286.26;109115;1257;66719;-56
2023/12/30 01:04:37;;;;;;;24.60;16.00;;;;;;;4.15;100.00;100285.96;109071;1257;71570;-56
2023/12/30 01:07:05;;;;;;;27.90;16.60;;;;;;;4.13;100.00;100284.43;109044;1257;60520;-56
2023/12/30 01:09:32;;;;;;;28.50;16.80;;;;;;;4.13;100.00;100285.67;109030;1256;60075;-56
2023/12/30 01:12:01;;;;;;;24.20;16.90;;;;;;;4.12;100.00;100292.44;109016;1256;74784;-56
2023/12/30 01:14:29;;;;;;;29.70;18.70;;;;;;;4.12;100.00;100287.43;109295;1254;67549;-56
2023/12/30 01:16:56;;;;;;;29.80;19.20;;;;;;;4.14;100.00;100287.64;109031;1257;72781;-56
2023/12/30 01:19:24;;;;;;;28.50;18.00;;;;;;;4.17;100.00;100291.33;109036;1256;59882;-57
2023/12/30 01:21:52;;;;;;;29.40;18.60;;;;;;;4.15;100.00;100289.45;109102;1255;60104;-57
2023/12/30 01:24:20;;;;;;;29.60;18.20;;;;;;;4.13;100.00;100289.63;109005;1257;75209;-56
2023/12/30 01:26:48;;;;;;;29.20;17.60;;;;;;;4.11;100.00;100283.45;109044;1256;65704;-55
2023/12/30 01:29:16;;;;;;;29.00;16.60;;;;;;;4.09;100.00;100291.02;109024;1256;71981;-56
2023/12/30 01:31:43;;;;;;;30.20;17.50;;;;;;;4.08;100.00;100288.86;108918;1256;60583;-56
2023/12/30 01:34:11;;;;;;;30.90;17.80;;;;;;;4.07;100.00;100286.20;109018;1255;60487;-56
2023/12/30 01:36:39;;;;;;;27.80;16.90;;;;;;;4.06;100.00;100284.23;109029;1257;74672;-56
2023/12/30 01:39:07;;;;;;;28.00;17.50;;;;;;;4.05;100.00;100290.84;109216;1254;67063;-56
2023/12/30 01:41:35;;;;;;;29.10;17.70;;;;;;;4.04;100.00;100285.91;109059;1257;73066;-56
2023/12/30 01:44:02;;;;;;;29.60;17.30;;;;;;;4.04;100.00;100277.55;109197;1254;58903;-55
2023/12/30 01:46:30;;;;;;;31.30;17.80;;;;;;;4.02;100.00;100288.34;109066;1255;60107;-56
2023/12/30 01:48:58;;;;;;;29.20;17.60;;;;;;;4.02;100.00;100275.69;108932;1258;73679;-56
2023/12/30 01:51:26;;;;;;;30.50;17.70;;;;;;;4.01;100.00;100284.64;109034;1257;66917;-56
2023/12/30 01:53:53;;;;;;;31.60;18.70;;;;;;;4.00;100.00;100279.60;109210;1254;72706;-56
2023/12/30 01:56:21;;;;;;;26.10;15.90;;;;;;;3.99;100.00;100278.30;108922;1255;59560;-56
2023/12/30 01:58:50;;;;;;;29.10;17.00;;;;;;;3.99;100.00;100276.95;108977;1256;60060;-56
2023/12/30 02:01:17;;;;;;;27.50;16.70;;;;;;;4.00;100.00;100275.48;109152;1256;73824;-55
2023/12/30 02:03:45;;;;;;;28.00;16.50;;;;;;;4.00;100.00;100266.24;108993;1256;65761;-56
2023/12/30 02:06:13;;;;;;;27.30;16.70;;;;;;;4.01;100.00;100274.05;108983;1255;72723;-56
2023/12/30 02:08:40;;;;;;;30.40;17.50;;;;;;;4.01;100.00;100284.37;109016;1257;60996;-56
2023/12/30 02:11:08;;;;;;;27.90;16.90;;;;;;;4.02;100.00;100284.77;109044;1255;58977;-56
2023/12/30 02:13:36;;;;;;;28.30;15.30;;;;;;;4.04;100.00;100288.06;109036;1258;74815;-56
2023/12/30 02:16:04;;;;;;;25.30;14.70;;;;;;;4.02;100.00;100291.46;109062;1257;66086;-56
2023/12/30 02:18:32;;;;;;;23.30;13.80;;;;;;;4.00;100.00;100303.52;109072;1255;73259;-55
2023/12/30 02:21:00;;;;;;;23.80;14.50;;;;;;;3.97;100.00;100300.35;109109;1256;61711;-56
2023/12/30 02:23:27;;;;;;;25.50;14.90;;;;;;;3.95;100.00;100296.30;109062;1255;58903;-55
2023/12/30 02:25:55;;;;;;;25.30;14.90;;;;;;;3.92;100.00;100290.70;109230;1254;73827;-56
2023/12/30 02:28:23;;;;;;;23.50;14.50;;;;;;;3.88;100.00;100285.91;109008;1256;65066;-56
2023/12/30 02:30:50;;;;;;;25.70;15.80;;;;;;;3.85;100.00;100283.24;109076;1256;72741;-56
2023/12/30 02:33:18;;;;;;;23.00;14.00;;;;;;;3.82;100.00;100277.47;108980;1256;60381;-55
2023/12/30 02:35:47;;;;;;;19.60;12.10;;;;;;;3.80;100.00;100277.67;109129;1256;60232;-55
2023/12/30 02:38:14;;;;;;;22.60;13.30;;;;;;;3.77;100.00;100280.69;109075;1256;73692;-56
2023/12/30 02:40:42;;;;;;;20.80;13.20;;;;;;;3.76;100.00;100287.83;109024;1256;66434;-56
2023/12/30 02:43:09;;;;;;;21.30;12.80;;;;;;;3.76;100.00;100289.27;109067;1256;70611;-55
2023/12/30 02:45:37;;;;;;;22.60;14.60;;;;;;;3.74;100.00;100288.91;109048;1256;60108;-56
2023/12/30 02:48:05;;;;;;;23.20;14.40;;;;;;;3.73;100.00;100292.71;109148;1256;59378;-56
2023/12/30 02:50:33;;;;;;;22.10;12.90;;;;;;;3.70;100.00;100293.02;109055;1255;74658;-56
2023/12/30 02:53:01;;;;;;;19.40;12.50;;;;;;;3.69;100.00;100297.09;109144;1257;67964;-56
2023/12/30 02:55:29;;;;;;;20.80;13.90;;;;;;;3.69;100.00;100304.93;109152;1256;71690;-55
2023/12/30 02:57:58;;;;;;;19.50;11.90;;;;;;;3.70;100.00;100304.22;109057;1257;61807;-56
2023/12/30 03:00:26;;;;;;;18.90;12.40;;;;;;;3.68;100.00;100301.13;109025;1255;190229;-56
2023/12/30 03:02:54;;;;;;;21.00;12.10;;;;;;;3.63;100.00;100299.95;109179;1254;74720;-56
2023/12/30 03:05:22;;;;;;;19.40;12.70;;;;;;;3.60;100.00;100299.89;109214;1254;65668;-56
2023/12/30 03:07:49;;;;;;;18.60;11.60;;;;;;;3.59;100.00;100297.61;109026;1256;72778;-55
2023/12/30 03:10:17;;;;;;;19.30;12.10;;;;;;;3.57;100.00;100298.42;109028;1257;59671;-56
2023/12/30 03:12:45;;;;;;;19.90;13.50;;;;;;;3.56;100.00;100297.20;108910;1256;59131;-56
2023/12/30 03:15:13;;;;;;;21.90;13.20;;;;;;;3.55;100.00;100298.77;108986;1256;72420;-56
2023/12/30 03:17:41;;;;;;;20.20;12.50;;;;;;;3.54;100.00;100301.11;109127;1256;65742;-56
2023/12/30 03:20:10;;;;;;;22.80;13.20;;;;;;;3.55;100.00;100304.10;108973;1255;71543;-56
2023/12/30 03:22:38;;;;;;;22.10;14.30;;;;;;;3.54;100.00;100302.98;109021;1255;59285;-56
2023/12/30 03:25:06;;;;;;;21.20;13.20;;;;;;;3.53;100.00;100301.07;109139;1256;58909;-55
2023/12/30 03:27:36;;;;;;;21.40;13.40;;;;;;;3.53;100.00;100306.38;109006;1256;72938;-55
2023/12/30 03:30:04;;;;;;;20.00;13.00;;;;;;;3.53;100.00;100304.80;109043;1256;66731;-55
2023/12/30 03:32:32;;;;;;;18.30;12.10;;;;;;;3.48;100.00;100318.63;109012;1255;72709;-56
2023/12/30 03:35:00;;;;;;;19.80;13.10;;;;;;;3.41;100.00;100321.67;109095;1256;60904;-55
2023/12/30 03:37:27;;;;;;;18.40;11.70;;;;;;;3.38;100.00;100330.84;109028;1256;58926;-55
2023/12/30 03:39:55;;;;;;;16.80;11.60;;;;;;;3.37;100.00;100331.13;109159;1255;74749;-55
2023/12/30 03:42:23;;;;;;;19.80;12.00;;;;;;;3.34;100.00;100331.25;109217;1254;67141;-55
2023/12/30 03:44:50;;;;;;;19.50;12.50;;;;;;;3.34;100.00;100339.52;109055;1256;71531;-56
2023/12/30 03:47:18;;;;;;;20.70;13.50;;;;;;;3.32;100.00;100340.54;108959;1256;58935;-55
2023/12/30 03:49:46;;;;;;;21.50;13.50;;;;;;;3.32;100.00;100346.37;109125;1256;58952;-55
2023/12/30 03:52:14;;;;;;;20.70;13.60;;;;;;;3.31;100.00;100345.75;109035;1256;74757;-55
2023/12/30 03:54:42;;;;;;;22.80;13.80;;;;;;;3.29;100.00;100338.02;108955;1257;66966;-56
2023/12/30 03:57:13;;;;;;;23.10;14.60;;;;;;;3.28;100.00;100335.00;109038;1256;71450;-55
2023/12/30 03:59:40;;;;;;;21.80;14.00;;;;;;;3.29;100.00;100335.69;109141;1256;59650;-55
2023/12/30 04:02:08;;;;;;;22.80;13.10;;;;;;;3.28;100.00;100332.08;108982;1257;58963;-55
2023/12/30 04:04:36;;;;;;;24.10;14.20;;;;;;;3.29;100.00;100324.83;109059;1255;73374;-55
2023/12/30 04:07:04;;;;;;;18.30;11.70;;;;;;;3.28;100.00;100326.43;108995;1256;65746;-55
2023/12/30 04:09:31;;;;;;;19.50;12.70;;;;;;;3.30;100.00;100340.92;109108;1256;71403;-56
2023/12/30 04:11:59;;;;;;;22.00;12.70;;;;;;;3.31;100.00;100340.80;109018;1256;60483;-55
2023/12/30 04:14:26;;;;;;;21.30;13.10;;;;;;;3.31;100.00;100336.50;109212;1254;60116;-55
2023/12/30 04:16:54;;;;;;;20.80;12.60;;;;;;;3.31;100.00;100341.14;109022;1256;73516;-56
2023/12/30 04:19:24;;;;;;;21.50;12.70;;;;;;;3.29;100.00;100345.58;109051;1256;65708;-56
2023/12/30 04:21:51;;;;;;;22.00;13.20;;;;;;;3.25;100.00;100341.30;109238;1254;71402;-55
2023/12/30 04:24:19;;;;;;;22.10;13.40;;;;;;;3.26;100.00;100334.33;109162;1254;59910;-55
2023/12/30 04:26:46;;;;;;;19.90;12.80;;;;;;;3.26;100.00;100332.65;109028;1255;59027;-55
2023/12/30 04:29:14;;;;;;;21.40;13.70;;;;;;;3.25;100.00;100347.50;109073;1255;74690;-56
2023/12/30 04:31:42;;;;;;;19.10;13.60;;;;;;;3.25;100.00;100355.17;109119;1256;66948;-55
2023/12/30 04:34:09;;;;;;;20.60;14.00;;;;;;;3.27;100.00;100359.33;109115;1255;72730;-55
2023/12/30 04:36:37;;;;;;;17.60;11.50;;;;;;;3.28;100.00;100368.58;109123;1256;59572;-55
2023/12/30 04:39:05;;;;;;;20.70;12.90;;;;;;;3.28;100.00;100361.11;108994;1256;59066;-55
2023/12/30 04:41:33;;;;;;;21.20;12.90;;;;;;;3.30;100.00;100360.48;109012;1255;73859;-55
2023/12/30 04:44:01;;;;;;;18.10;12.20;;;;;;;3.30;100.00;100355.81;108989;1255;65735;-55
2023/12/30 04:46:28;;;;;;;20.00;13.40;;;;;;;3.31;100.00;100353.37;108997;1256;72747;-55
2023/12/30 04:48:56;;;;;;;19.70;12.50;;;;;;;3.31;100.00;100353.31;109011;1256;60125;-56
2023/12/30 04:51:24;;;;;;;18.20;12.40;;;;;;;3.31;100.00;100352.61;108954;1255;60160;-55
2023/12/30 04:53:51;;;;;;;19.20;12.30;;;;;;;3.28;100.00;100356.89;109041;1256;73327;-55
2023/12/30 04:56:19;;;;;;;18.10;12.20;;;;;;;3.24;100.00;100354.64;108989;1255;65781;-55
2023/12/30 04:58:47;;;;;;;19.10;12.20;;;;;;;3.21;100.00;100355.89;109142;1256;72673;-55
2023/12/30 05:01:15;;;;;;;21.30;13.50;;;;;;;3.19;100.00;100359.66;108962;1256;59176;-55
2023/12/30 05:03:42;;;;;;;17.20;12.50;;;;;;;3.19;100.00;100366.21;109146;1256;58922;-55
2023/12/30 05:06:21;;;;;;;19.80;12.20;;;;;;;3.20;100.00;100363.71;109032;1255;74942;-58
2023/12/30 05:08:52;;;;;;;21.00;14.10;;;;;;;3.21;100.00;100359.99;109072;1256;67009;-55
2023/12/30 05:11:23;;;;;;;20.50;13.90;;;;;;;3.23;100.00;100368.13;109013;1256;72750;-55
2023/12/30 05:13:51;;;;;;;19.50;13.30;;;;;;;3.24;100.00;100369.22;109238;1254;62154;-56
2023/12/30 05:16:18;;;;;;;20.40;14.10;;;;;;;3.27;100.00;100372.40;109067;1255;60098;-55
2023/12/30 05:18:46;;;;;;;19.00;13.10;;;;;;;3.29;100.00;100378.76;109195;1256;73819;-55
2023/12/30 05:21:14;;;;;;;18.00;12.10;;;;;;;3.29;100.00;100390.11;108959;1256;66213;-56
2023/12/30 05:23:42;;;;;;;19.60;13.20;;;;;;;3.27;100.00;100402.13;109136;1256;71204;-55
2023/12/30 05:26:12;;;;;;;18.60;12.80;;;;;;;3.25;100.00;100400.75;109218;1254;59871;-55
2023/12/30 05:28:39;;;;;;;19.90;12.90;;;;;;;3.25;100.00;100403.68;109162;1256;58996;-56
2023/12/30 05:31:07;;;;;;;18.90;13.40;;;;;;;3.27;100.00;100406.77;109006;1255;74762;-56
2023/12/30 05:33:35;;;;;;;18.70;12.30;;;;;;;3.25;100.00;100407.92;109083;1255;66957;-55
2023/12/30 05:36:03;;;;;;;16.20;11.20;;;;;;;3.26;100.00;100402.73;108993;1255;72704;-55
2023/12/30 05:38:30;;;;;;;19.80;12.90;;;;;;;3.25;100.00;100405.52;109053;1255;61050;-55
2023/12/30 05:40:58;;;;;;;18.80;12.60;;;;;;;3.23;100.00;100404.86;109005;1256;59077;-56
2023/12/30 05:43:26;;;;;;;16.10;11.30;;;;;;;3.24;100.00;100405.80;109163;1255;74651;-55
2023/12/30 05:45:53;;;;;;;21.50;14.10;;;;;;;3.25;100.00;100408.00;109041;1256;66966;-55
2023/12/30 05:48:21;;;;;;;18.60;12.80;;;;;;;3.25;100.00;100408.63;109163;1255;72742;-56
2023/12/30 05:50:49;;;;;;;15.60;11.80;;;;;;;3.27;100.00;100411.39;108972;1256;59601;-57
2023/12/30 05:53:16;;;;;;;19.20;12.40;;;;;;;3.30;100.00;100408.88;109170;1255;59055;-55
2023/12/30 05:55:44;;;;;;;17.90;11.80;;;;;;;3.33;100.00;100412.23;109023;1256;73417;-55
2023/12/30 05:58:12;;;;;;;18.30;12.80;;;;;;;3.35;100.00;100403.44;109057;1256;65878;-55
2023/12/30 06:00:39;;;;;;;16.80;12.10;;;;;;;3.39;100.00;100401.25;109018;1255;72716;-56
2023/12/30 06:03:07;;;;;;;19.70;13.20;;;;;;;3.41;100.00;100403.97;109114;1256;60561;-56
2023/12/30 06:05:35;;;;;;;20.40;14.50;;;;;;;3.43;100.00;100408.98;109005;1256;60230;-55
2023/12/30 06:08:04;;;;;;;19.60;13.50;;;;;;;3.44;100.00;100406.13;109221;1256;74696;-55
2023/12/30 06:10:31;;;;;;;16.60;11.50;;;;;;;3.46;100.00;100406.48;109063;1255;65854;-55
2023/12/30 06:12:59;;;;;;;19.80;13.80;;;;;;;3.47;100.00;100403.84;108975;1256;71065;-55
2023/12/30 06:15:27;;;;;;;22.20;14.50;;;;;;;3.43;100.00;100410.86;109151;1256;59518;-56
2023/12/30 06:17:55;;;;;;;20.50;13.50;;;;;;;3.40;100.00;100408.17;109007;1256;58926;-55
2023/12/30 06:20:23;;;;;;;17.30;12.70;;;;;;;3.34;100.00;100405.29;109067;1256;73736;-55
2023/12/30 06:22:50;;;;;;;21.60;12.80;;;;;;;3.28;100.00;100408.74;109037;1255;67128;-56
2023/12/30 06:25:18;;;;;;;17.30;12.20;;;;;;;3.22;100.00;100413.70;109141;1255;71432;-55
2023/12/30 06:27:46;;;;;;;16.90;11.30;;;;;;;3.18;100.00;100413.51;109163;1256;60967;-55
2023/12/30 06:30:14;;;;;;;15.60;11.40;;;;;;;3.15;100.00;100409.96;108999;1255;60156;-55
2023/12/30 06:32:41;;;;;;;15.20;11.00;;;;;;;3.16;100.00;100418.82;109196;1255;74855;-56
2023/12/30 06:35:09;;;;;;;14.80;11.10;;;;;;;3.18;100.00;100420.38;108998;1256;65968;-55
2023/12/30 06:37:37;;;;;;;16.90;11.70;;;;;;;3.25;100.00;100419.60;109008;1256;72711;-55
2023/12/30 06:40:05;;;;;;;15.50;11.10;;;;;;;3.32;100.00;100416.95;109013;1255;59673;-55
2023/12/30 06:42:33;;;;;;;15.50;10.50;;;;;;;3.41;100.00;100415.69;109037;1256;59711;-55
2023/12/30 06:45:00;;;;;;;14.60;9.80;;;;;;;3.52;100.00;100414.56;109012;1255;73484;-56
2023/12/30 06:47:28;;;;;;;15.10;11.10;;;;;;;3.65;100.00;100420.24;109075;1256;65711;-58
2023/12/30 06:49:56;;;;;;;17.60;12.60;;;;;;;3.79;100.00;100415.98;109025;1255;72565;-56
2023/12/30 06:52:23;;;;;;;17.30;11.60;;;;;;;4.00;100.00;100423.02;109162;1255;59680;-56
2023/12/30 06:54:51;;;;;;;16.70;11.10;;;;;;;4.37;100.00;100418.86;109132;1255;58914;-57
2023/12/30 06:57:36;;;;;;;14.00;10.60;;;;;;;5.00;100.00;100413.52;109155;1255;73462;-56
2023/12/30 07:00:05;;;;;;;13.20;10.70;;;;;;;5.68;100.00;100417.80;109055;1255;65802;-56
2023/12/30 07:02:34;;;;;;;15.10;11.70;;;;;;;6.30;100.00;100420.66;109003;1256;72269;-56
2023/12/30 07:05:01;;;;;;;13.60;10.50;;;;;;;6.73;100.00;100423.80;108993;1255;61331;-56
2023/12/30 07:07:29;;;;;;;13.50;10.90;;;;;;;7.14;100.00;100422.77;109012;1256;58936;-56
2023/12/30 07:09:57;;;;;;;15.90;12.30;;;;;;;7.61;100.00;100419.85;109066;1255;73730;-56
2023/12/30 07:12:24;;;;;;;15.70;11.20;;;;;;;8.08;100.00;100416.98;109053;1255;66047;-56
2023/12/30 07:14:52;;;;;;;14.30;10.50;;;;;;;8.55;100.00;100418.73;109040;1256;71381;-57
2023/12/30 07:17:19;;;;;;;17.10;11.60;;;;;;;9.00;100.00;100414.18;109007;1255;58995;-56
2023/12/30 07:19:47;;;;;;;14.30;10.10;;;;;;;9.43;100.00;100410.52;109035;1255;60132;-56
2023/12/30 07:22:18;;;;;;;14.60;9.70;;;;;;;9.84;100.00;100413.04;109061;1256;73587;-56
2023/12/30 07:24:49;;;;;;;11.00;8.80;;;;;;;10.19;100.00;100420.56;109182;1255;66772;-56
2023/12/30 07:27:17;;;;;;;11.40;8.40;;;;;;;10.32;100.00;100416.30;109012;1255;72782;-58
2023/12/30 07:29:44;;;;;;;12.30;9.80;;;;;;;10.56;100.00;100408.08;109046;1255;58981;-57
2023/12/30 07:32:12;;;;;;;13.00;10.10;;;;;;;10.85;100.00;100404.14;109194;1256;59035;-56
2023/12/30 07:34:40;;;;;;;11.30;9.80;;;;;;;11.03;100.00;100394.89;109208;1256;74725;-56
2023/12/30 07:37:07;;;;;;;16.10;10.90;;;;;;;11.20;100.00;100380.67;109002;1255;65786;-57
2023/12/30 07:39:35;;;;;;;13.40;10.00;;;;;;;11.27;100.00;100372.20;109140;1255;73328;-56
2023/12/30 07:42:03;;;;;;;13.30;11.40;;;;;;;11.18;100.00;100361.66;109051;1255;60032;-57
2023/12/30 07:44:37;;;;;;;11.90;9.30;;;;;;;11.02;100.00;100350.14;109163;1255;60024;-57
2023/12/30 07:47:06;;;;;;;12.30;9.70;;;;;;;10.86;100.00;100339.16;109021;1255;74723;-58
2023/12/30 07:49:35;;;;;;;11.00;9.50;;;;;;;10.80;100.00;100333.63;109069;1255;65668;-57
2023/12/30 07:52:03;;;;;;;11.50;9.40;;;;;;;10.71;100.00;100324.26;109026;1256;71586;-57
2023/12/30 07:54:31;;;;;;;12.20;8.90;;;;;;;10.57;100.00;100320.04;109231;1254;60129;-57
2023/12/30 07:56:58;;;;;;;12.00;9.00;;;;;;;10.48;100.00;100315.70;109042;1255;59077;-57
2023/12/30 07:59:26;;;;;;;11.80;9.00;;;;;;;10.49;100.00;100311.59;108940;1255;75340;-57
2023/12/30 08:01:56;;;;;;;11.30;9.10;;;;;;;10.60;100.00;100299.02;109191;1256;67828;-57
2023/12/30 08:04:24;;;;;;;11.80;8.80;;;;;;;10.71;100.00;100297.34;109058;1255;72769;-57
2023/12/30 08:06:53;;;;;;;10.70;9.00;;;;;;;10.81;100.00;100287.96;109043;1255;60136;-56
2023/12/30 08:09:22;;;;;;;12.10;9.50;;;;;;;10.91;100.00;100279.98;109118;1256;59996;-55
2023/12/30 08:11:50;;;;;;;12.60;9.30;;;;;;;10.95;100.00;100275.98;109044;1258;74772;-56
2023/12/30 08:14:29;;;;;;;12.00;8.80;;;;;;;10.98;100.00;100269.46;109176;1255;67091;-56
2023/12/30 08:16:58;;;;;;;11.00;8.30;;;;;;;10.96;100.00;100264.04;109109;1255;71551;-57
2023/12/30 08:19:26;;;;;;;10.50;8.70;;;;;;;10.89;100.00;100259.39;109102;1255;59092;-56
2023/12/30 08:21:54;;;;;;;12.20;8.80;;;;;;;10.82;100.00;100252.02;109053;1255;60090;-56
2023/12/30 08:24:22;;;;;;;10.80;9.30;;;;;;;10.75;100.00;100254.52;109048;1255;74788;-57
2023/12/30 08:26:49;;;;;;;12.60;8.90;;;;;;;10.65;100.00;100257.52;109043;1257;67516;-58
2023/12/30 08:29:17;;;;;;;14.80;9.40;;;;;;;10.59;100.00;100258.33;109078;1256;72677;-57
2023/12/30 08:31:47;;;;;;;12.90;9.50;;;;;;;10.44;100.00;100252.46;109035;1257;60541;-54
2023/12/30 08:34:15;;;;;;;12.70;9.60;;;;;;;10.26;100.00;100251.35;109069;1255;60109;-55
2023/12/30 08:36:44;;;;;;;14.80;10.30;;;;;;;10.14;100.00;100253.37;109124;1255;73437;-57
2023/12/30 08:39:12;;;;;;;14.00;9.20;;;;;;;10.05;100.00;100256.85;109049;1256;68916;-56
2023/12/30 08:41:40;;;;;;;12.00;9.70;;;;;;;10.02;100.00;100257.05;109168;1255;71926;-56
2023/12/30 08:44:08;;;;;;;14.70;9.90;;;;;;;10.03;100.00;100250.48;109142;1256;59369;-56
2023/12/30 08:46:36;;;;;;;14.50;10.20;;;;;;;10.12;100.00;100249.27;109125;1255;58900;-57
2023/12/30 08:49:04;;;;;;;12.50;9.70;;;;;;;10.19;100.00;100247.06;109048;1256;74740;-56
2023/12/30 08:51:36;;;;;;;13.00;9.30;;;;;;;10.33;100.00;100246.05;109070;1256;66440;-56
2023/12/30 08:54:04;;;;;;;13.60;9.70;;;;;;;10.49;100.00;100241.90;109026;1255;72738;-56
2023/12/30 08:56:33;;;;;;;11.90;9.80;;;;;;;10.62;100.00;100237.95;109138;1255;60243;-57
2023/12/30 08:59:01;;;;;;;13.60;9.90;;;;;;;10.67;100.00;100236.61;109165;1256;59659;-56
2023/12/30 09:01:30;;;;;;;12.60;9.50;;;;;;;10.65;100.00;100241.80;109225;1255;74640;-56
2023/12/30 09:03:59;;;;;;;14.80;10.70;;;;;;;10.66;100.00;100236.73;109196;1255;66951;-55
2023/12/30 09:06:27;;;;;;;12.60;9.70;;;;;;;10.73;100.00;100232.83;109153;1255;71442;-57
2023/12/30 09:08:56;;;;;;;14.30;10.20;;;;;;;10.70;100.00;100235.52;109151;1255;60638;-56
2023/12/30 09:11:24;;;;;;;13.40;9.90;;;;;;;10.65;100.00;100236.84;109212;1255;60071;-56
2023/12/30 09:13:51;;;;;;;14.20;10.70;;;;;;;10.58;100.00;100238.56;109057;1256;73429;-56
2023/12/30 09:16:19;;;;;;;13.20;10.40;;;;;;;10.50;100.00;100241.86;109178;1255;67331;-56
2023/12/30 09:18:47;;;;;;;14.80;10.10;;;;;;;10.32;100.00;100244.66;109052;1255;72744;-57
2023/12/30 09:21:15;;;;;;;15.70;10.10;;;;;;;10.12;100.00;100241.41;109042;1256;60154;-56
2023/12/30 09:23:43;;;;;;;13.70;10.00;;;;;;;9.94;100.00;100243.98;109044;1255;59035;-55
2023/12/30 09:26:12;;;;;;;11.00;9.10;;;;;;;9.85;100.00;100244.04;109055;1256;73403;-55
2023/12/30 09:28:40;;;;;;;13.70;10.90;;;;;;;9.76;100.00;100247.32;109062;1255;66161;-56
2023/12/30 09:31:08;;;;;;;12.20;10.00;;;;;;;9.67;100.00;100247.82;108996;1255;72879;-56
2023/12/30 09:33:36;;;;;;;15.50;11.00;;;;;;;9.59;100.00;100249.86;109196;1255;60164;-56
2023/12/30 09:36:04;;;;;;;13.40;10.20;;;;;;;9.53;100.00;100246.95;109084;1255;59141;-56
2023/12/30 09:38:32;;;;;;;11.90;10.10;;;;;;;9.52;100.00;100249.94;109078;1255;73812;-55
2023/12/30 09:40:59;;;;;;;15.80;10.80;;;;;;;9.55;100.00;100252.46;109046;1255;67481;-54
2023/12/30 09:43:27;;;;;;;15.10;11.30;;;;;;;9.55;100.00;100252.47;109062;1256;72728;-55
2023/12/30 09:45:56;;;;;;;15.70;10.80;;;;;;;9.47;100.00;100255.39;109036;1255;59404;-56
2023/12/30 09:48:26;;;;;;;15.80;11.10;;;;;;;9.42;100.00;100251.39;109144;1255;60099;-55
2023/12/30 09:50:56;;;;;;;12.40;10.10;;;;;;;9.40;100.00;100253.89;109031;1256;74697;-55
2023/12/30 09:53:24;;;;;;;15.90;11.30;;;;;;;9.36;100.00;100253.99;109092;1255;65646;-55
2023/12/30 09:55:52;;;;;;;14.70;10.90;;;;;;;9.38;100.00;100254.29;109131;1256;72741;-57
2023/12/30 09:58:21;;;;;;;16.60;11.80;;;;;;;9.44;100.00;100249.42;109155;1256;60148;-56
2023/12/30 10:00:49;;;;;;;15.10;10.80;;;;;;;9.47;100.00;100246.27;109163;1255;59152;-57
2023/12/30 10:03:18;;;;;;;13.40;10.90;;;;;;;9.44;100.00;100247.89;109060;1256;75058;-56
2023/12/30 10:05:46;;;;;;;15.30;11.10;;;;;;;9.41;100.00;100248.38;109179;1255;65736;-56
2023/12/30 10:08:15;;;;;;;16.70;10.70;;;;;;;9.40;100.00;100249.48;109176;1255;73187;-57
2023/12/30 10:10:44;;;;;;;13.30;10.90;;;;;;;9.37;100.00;100247.83;109031;1255;59381;-57
2023/12/30 10:13:13;;;;;;;15.50;11.10;;;;;;;9.29;100.00;100244.44;109141;1256;59365;-56
2023/12/30 10:15:42;;;;;;;14.00;10.70;;;;;;;9.21;100.00;100237.48;109237;1256;75109;-56
2023/12/30 10:18:10;;;;;;;15.40;10.40;;;;;;;9.16;100.00;100237.23;109086;1256;66942;-56
2023/12/30 10:20:42;;;;;;;13.60;10.10;;;;;;;9.12;100.00;100236.83;109026;1255;72767;-57
2023/12/30 10:23:09;;;;;;;12.70;9.40;;;;;;;9.13;100.00;100240.83;109088;1255;60879;-59
2023/12/30 10:25:37;;;;;;;15.70;11.10;;;;;;;9.22;100.00;100236.89;109044;1255;59426;-55
2023/12/30 10:28:05;;;;;;;15.10;10.80;;;;;;;9.27;100.00;100232.89;109165;1255;74725;-56
2023/12/30 10:30:33;;;;;;;14.20;10.90;;;;;;;9.32;100.00;100232.78;109176;1256;66215;-56
2023/12/30 10:33:11;;;;;;;16.10;11.40;;;;;;;9.36;100.00;100229.80;108990;1256;71898;-57
2023/12/30 10:35:40;;;;;;;15.10;10.60;;;;;;;9.36;100.00;100227.75;109129;1255;60510;-57
2023/12/30 10:38:08;;;;;;;14.10;10.10;;;;;;;9.36;100.00;100226.05;109195;1255;59458;-58
2023/12/30 10:40:38;;;;;;;14.80;10.60;;;;;;;9.39;100.00;100223.55;109099;1255;74782;-58
2023/12/30 10:43:06;;;;;;;15.70;10.70;;;;;;;9.42;100.00;100221.96;109100;1255;67074;-58
2023/12/30 10:45:34;;;;;;;17.70;11.10;;;;;;;9.52;100.00;100225.40;109096;1255;72715;-58
2023/12/30 10:48:02;;;;;;;15.40;10.90;;;;;;;9.60;100.00;100229.48;109096;1255;60144;-57
2023/12/30 10:50:30;;;;;;;14.80;9.90;;;;;;;9.66;100.00;100223.46;108893;1256;60128;-57
2023/12/30 10:53:23;;;;;;;15.80;11.50;;;;;;;9.73;100.00;100218.91;109030;1255;73547;-56
2023/12/30 10:55:53;;;;;;;13.90;9.80;;;;;;;9.78;100.00;100218.86;109090;1260;66940;-56
2023/12/30 10:58:22;;;;;;;15.20;10.20;;;;;;;9.86;100.00;100211.61;109063;1255;72438;-56
2023/12/30 11:00:57;;;;;;;15.20;10.90;;;;;;;9.94;100.00;100209.27;109202;1254;59408;-62
2023/12/30 11:03:25;;;;;;;15.90;11.20;;;;;;;10.03;100.00;100207.94;109060;1255;59429;-56
2023/12/30 11:05:59;;;;;;;18.60;11.40;;;;;;;10.10;100.00;100205.23;108992;1255;73465;-56